CZFM/ZFM METAR and TAF weather

Enter ICAO airport designator
Station Type Date Time Source
CZFM METAR 2019/04/25 21:00 UTC NOAA

CZFM 252100Z 12003KT 050V130 35SM SKC M02/M15 A3036 RMK SLP285


Station Type Date Time Source
CZFM Decoded METAR 2019/04/25 21:00 UTC NOAA

Fort Mcpherson Airport, Canada (CZFM) 67-24N 134-51W
Apr 25, 2019 - 05:00 PM EDT / 2019.04.25 2100 UTC
Wind: from the ESE (120 degrees) at 3 MPH (3 KT) (direction variable):0
Visibility: 35 mile(s):0
Sky conditions: clear
Temperature: 28 F (-2 C)
Dew Point: 5 F (-15 C)
Relative Humidity: 36%
Pressure (altimeter): 30.36 in. Hg (1028 hPa)
ob: CZFM 252100Z 12003KT 050V130 35SM SKC M02/M15 A3036 RMK SLP285
cycle: 21

Station Type Date Time Source
CZFM TAF 2019/04/25 19:00 UTC NOAA

TAF CZFM 251838Z 2519/2523 VRB03KT P6SM FEW020
RMK NXT FCST WILL BE ISSUED AT 261445Z

Example: see airport list